Empire, MI

9:24 PM EST on December 09, 2016 (GMT -0500)
Leelanau Coffee Roasting | | Change Station
Active Advisory: Winter Weather Advisory

Elev 590 ft 44.90 °N, 86.01 °W | Updated 10 seconds ago

Snow
Snow
25.8 °F
Feels Like 26 °F
N
0.0
Wind Variable Wind from WNW
Gusts 4.0 mph

Today
High -- | Low -- °F
--% Chance of Precip.
Yesterday
High -- | Low -- °F
Precip. -- in
Pressure 30.36 in
Visibility 10.0 miles
Clouds Mostly Cloudy 3400 ft
Mostly Cloudy 4400 ft
Overcast 6000 ft
Windchill 26 °F
Dew Point 18 °F
Humidity 71%
Rainfall 0.00 in
Snow Depth Not available.
8:10 AM 5:02 PM
Waxing Gibbous, 79% visible
METAR KFKS 100215Z AUTO 30008KT 10SM BKN034 BKN044 OVC060 M03/M09 A3036 RMK AO2 T10331087
Pressure 30.36 in
Visibility 10.0 miles
Clouds Mostly Cloudy 3400 ft
Mostly Cloudy 4400 ft
Overcast 6000 ft
Windchill 26 °F
Dew Point 18 °F
Humidity 71%
Rainfall 0.00 in
Snow Depth Not available.
8:10 AM 5:02 PM
Waxing Gibbous, 79% visible
METAR KFKS 100215Z AUTO 30008KT 10SM BKN034 BKN044 OVC060 M03/M09 A3036 RMK AO2 T10331087

10-Day Weather Forecast

Almanac

Astronomy

Dec. 09, 2016 Rise Set
Actual Time
Civil Twilight
Nautical Twilight
Astronomical Twilight
Moon
Length of Visible Light
Length of Day
Tomorrow will be .
, % of the Moon is Illuminated

Today's Extremes

State Highs State Lows

Community

WunderPhotos

Upload Photos

1,956,532 photos uploaded!

WunderBlog® & News

Nearby

Air Quality

  Air Quality AQ Index Pollutant
Not available.

Snow Depth

Station Depth Elevation

Earthquake Activity

City Distance Mag. Time & Date
Minimum magnitude displayed is 2.5.

Coastal Water Temperatures

Place Temperature

Stations

Nearby Weather Stations

Station Location Temp. Windchill Dew Point Humidity Wind Precip. Elev Updated Type
                   

Watches & Warnings

Winter Weather Advisory
Issued: 2:15 PM EST Dec. 9, 2016 – National Weather Service

... Winter Weather Advisory in effect until noon EST Saturday...
... Winter Storm Warning is cancelled...

The National Weather Service in Gaylord has issued a Winter
Weather Advisory... which is in effect until noon EST Saturday.
The Winter Storm Warning has been cancelled.

* Expect fluffy lake effect snow showers to
continue... diminishing around noon Saturday.

* The heaviest snowfall rates will occur between 7 PM this evening
and 12 am Saturday.

* Additional fluffy snow accumulations of 2 to 6 inches are
expected... with isolated totals of 8 inches possible where snow
bands remain most persistent.

* Look for reduced visibilities at times.

* Plan on difficult driving conditions.

Precautionary/preparedness actions...

A Winter Weather Advisory for fluffy snow means periods of fluffy
snow will cause primarily travel difficulties. Be prepared for
snow covered roads and limited visibilities... and use caution
while driving. For the latest Road conditions... go to the mdot
website at Michigan.Gov.